KFMY/FMY METAR and TAF weather

Enter ICAO airport designator
Station Type Date Time Source
KFMY METAR 2023/02/05 13:53 UTC NOAA

KFMY 051353Z 08011G16KT 10SM SCT011 21/18 A3019 RMK AO2 SLP225 T02110183


Station Type Date Time Source
KFMY Decoded METAR 2023/02/05 13:53 UTC NOAA

FORT MYERS PAGE FIELD, FL, United States (KFMY) 26-35N 081-52W 4M
Feb 05, 2023 - 08:53 AM EST / 2023.02.05 1353 UTC
Wind: from the E (080 degrees) at 13 MPH (11 KT) gusting to 18 MPH (16 KT):0
Visibility: 10 mile(s):0
Sky conditions: partly cloudy
Temperature: 70.0 F (21.1 C)
Dew Point: 64.9 F (18.3 C)
Relative Humidity: 84%
Pressure (altimeter): 30.19 in. Hg (1022 hPa)
ob: KFMY 051353Z 08011G16KT 10SM SCT011 21/18 A3019 RMK AO2 SLP225 T02110183
cycle: 14

Station Type Date Time Source
KFMY TAF 2023/02/05 12:24 UTC NOAA

TAF KFMY 051121Z 0512/0612 08007KT P6SM VCSH BKN035
FM051700 22008KT P6SM VCSH SCT030 OVC060
FM060600 35003KT P6SM OVC100
FM060900 03004KT P6SM OVC025

Example: see airport list